x

Buoy I01 - Eastern Maine Shelf (44034) Wave Buoy

10:04am - Sun 17th Dec 2017 All times are EST. -5 hours from GMT.

  • Sig Wave height 3.6ft
  • Peak Period 4s
  • Wind
    20mph, 25mph gusts
  • Sea Temp 48°f
  • Air Temp 23°f
  • Sea Pressure 1021.6mb
  • Buoy I01 - Eastern Maine Shelf
  • Buoy I01 - Eastern Maine Shelf

More Historic Weather Station data

Upgrade to MSW Pro to gain access to the past 30 days of data for over 8000 Wavebouys and Weather Stations around the globe.

Join

Comparision Forecast

View Surf forecast
   
Sun 12/17 10:04am 3.5ft 4s 20 25 mph 1021.6mb 48f 23f
9:04am 4ft 5s 22 27 mph 1021.4mb 48f 24f
8:04am 4.5ft 4s 25 31 mph 1021.5mb 48f 23f
7:04am 3.5ft 5s 27 31 mph 1020.8mb 48f 23f
6:04am 4ft 4s 22 27 mph 1020.6mb 48f 24f
5:04am 3.5ft 4s 25 29 mph 1020mb 48f 24f
4:04am 3.5ft 4s 25 29 mph 1019.6mb 48f 25f
3:04am 3.5ft 4s 25 29 mph 1019.5mb 48f 24f
2:04am 3.5ft 4s 22 27 mph 1019.1mb 48f 24f
12:04am 3.5ft 4s 27 31 mph 1017mb 48f 27f
Sat 12/16 11:04pm 3.5ft 4s 25 29 mph 1016.5mb 48f 28f
10:04pm 3.5ft 4s 25 29 mph 1015.8mb 48f 28f
9:04pm 2.5ft 4s 22 27 mph 1014.9mb 48f 29f
8:04pm 2.5ft 4s 18 25 mph 1014.4mb 48f 28f
7:04pm 2.5ft 3s 20 25 mph 1013.8mb 48f 29f
6:04pm 2.5ft 3s 20 27 mph 1012.7mb 48f 29f
5:04pm 2.5ft 3s 20 27 mph 1011.8mb 48f 29f
4:04pm 2.5ft 3s 18 22 mph 1010.7mb 48f 30f
3:04pm 2.5ft 3s 18 25 mph 1009.6mb 48f 29f
2:04pm 2.5ft 3s 16 25 mph 1008.8mb 48f 29f
1:04pm 2ft 3s 16 20 mph 1008.8mb 48f 28f
12:04pm 2.5ft 3s 16 22 mph 1008.8mb 48f 27f
11:04am 2.5ft 5s 13 18 mph 1008.9mb 48f 26f
10:04am 2.5ft 5s 13 18 mph 1009.2mb 48f 25f
9:04am 2.5ft 5s 11 13 mph 1008.8mb 48f 24f
8:04am 3.5ft 8s 13 18 mph 1008mb 48f 24f
7:04am 3ft 4s 16 20 mph 1007.9mb 48f 24f
6:04am 2.5ft 4s 18 22 mph 1007mb 48f 24f
5:04am  -   -  18 22 mph 1006.6mb 48f 25f
4:04am 4ft 11s 20 25 mph 1006.4mb 48f 25f
3:04am  -   -  20 22 mph 1006.7mb 48f 25f
2:04am  -   -  16 20 mph 1006.9mb 48f 26f
1:04am 3.5ft 11s 13 18 mph 1007mb 48f 26f
12:04am 4ft 11s 13 20 mph 1007.3mb 48f 29f
Fri 12/15 11:04pm 3.5ft 11s 9 16 mph 1008.8mb 48f 28f
10:04pm 4ft 11s 4 9 mph 1009.7mb 48f 29f
9:04pm 3.5ft 11s 9 13 mph 1009.9mb 48f 30f
8:04pm 3.5ft 11s 7 9 mph 1010.4mb 48f 29f
7:04pm 3.5ft 11s 4 9 mph 1012mb 48f 28f
6:04pm 4ft 11s 9 16 mph 1013.2mb 48f 29f
5:04pm 4ft 11s 11 16 mph 1013.8mb 48f 29f
4:04pm 4.5ft 11s 9 13 mph 1014.1mb 48f 29f
3:04pm 4ft 11s 11 13 mph 1014.5mb 48f 28f
2:04pm 4.5ft 11s 11 13 mph 1014.5mb 48f 28f
1:04pm 4ft 11s 11 18 mph 1015.2mb 48f 27f
12:04pm  -   -  16 20 mph 1015.7mb 48f 27f
11:04am 3ft 5s 11 18 mph 1016.5mb 48f 25f
10:04am 3.5ft 5s 16 20 mph 1016.7mb 48f 25f
9:04am 3.5ft 6s 18 22 mph 1016.2mb 48f 24f
8:04am 6ft 11s 20 25 mph 1015.4mb 48f 24f
7:04am 5ft 8s 25 29 mph 1015.3mb 48f 22f
6:04am 6ft 5s 22 29 mph 1014.8mb 48f 22f
5:04am 4.5ft 4s 22 31 mph 1014mb 48f 21f
4:04am 5ft 6s 20 27 mph 1013.6mb 48f 21f
3:04am 5.5ft 5s 27 36 mph 1012.6mb 48f 22f
2:04am 6ft 6s 31 40 mph 1011.5mb 48f 24f
1:04am 5ft 4s 27 34 mph 1010.8mb 48f 23f
12:04am 5ft 5s 29 34 mph 1010mb 48f 23f
Thu 12/14 11:04pm 5ft 6s 25 31 mph 1010mb 48f 23f
10:04pm 5.5ft 6s 25 34 mph 1009.4mb 48f 23f
9:04pm 6.5ft 6s 27 38 mph 1008.1mb 48f 23f
8:04pm 7.5ft 6s 29 36 mph 1006.8mb 48f 24f
7:04pm 6ft 5s 29 34 mph 1005.4mb 48f 27f
6:04pm 5ft 6s 29 36 mph 1004.3mb 48f 27f
2:04pm 5ft 6s 20 27 mph 1000.4mb 48f 26f
1:04pm 6ft 8s 22 29 mph 999.8mb 48f 26f
12:04pm 6.5ft 8s 22 27 mph 999.3mb 48f 27f
11:04am 7ft 8s 20 27 mph 999mb 48f 28f
10:04am 7ft 8s 20 25 mph 999.8mb 48f 29f
9:04am 7.5ft 8s 22 29 mph 999.9mb 48f 29f
8:04am 8.5ft 8s 20 27 mph 999.7mb 48f 28f
7:04am 10ft 11s 25 29 mph 998.8mb 48f 28f
6:04am 9.5ft 8s 27 31 mph 998.5mb 48f 28f
5:04am 10ft 8s 29 36 mph 998.1mb 48f 28f
4:04am 11.5ft 8s 29 36 mph 997.4mb 48f 28f
3:04am 11ft 8s 31 36 mph 996.5mb 48f 27f
2:04am 11ft 8s 31 43 mph 996.2mb 48f 26f
1:04am 11ft 8s 29 36 mph 995.1mb 48f 25f
12:04am 10.5ft 8s 36 45 mph 993.3mb 48f 24f
Wed 12/13 11:04pm 12ft 8s 34 40 mph 992.4mb 48f 23f
10:04pm 10ft 8s 31 38 mph 991.5mb 48f 24f
9:04pm 9.5ft 8s 31 38 mph 990.1mb 48f 24f
8:04pm 8.5ft 8s 34 40 mph 989mb 48f 24f
7:04pm 8.5ft 8s 31 38 mph 987.5mb 48f 24f
6:04pm 7.5ft 6s 31 36 mph 986.2mb 48f 26f